createdAt,value
2023-03-29T00:00:37.510Z,-4.32
2023-03-29T00:03:18.279Z,-4.35
2023-03-29T00:05:46.554Z,-4.41
2023-03-29T00:08:14.700Z,-4.43
2023-03-29T00:10:42.822Z,-4.45
2023-03-29T00:13:10.922Z,-4.46
2023-03-29T00:15:38.852Z,-4.48
2023-03-29T00:18:06.782Z,-4.45
2023-03-29T00:20:34.808Z,-4.43
2023-03-29T00:23:02.706Z,-4.46
2023-03-29T00:25:30.475Z,-4.50
2023-03-29T00:27:58.417Z,-4.52
2023-03-29T00:30:26.362Z,-4.54
2023-03-29T00:32:54.454Z,-4.54
2023-03-29T00:35:22.397Z,-4.55
2023-03-29T00:37:51.091Z,-4.56
2023-03-29T00:40:19.925Z,-4.54
2023-03-29T00:42:47.858Z,-4.54
2023-03-29T00:45:22.994Z,-4.53
2023-03-29T00:48:03.091Z,-4.50
2023-03-29T00:50:39.929Z,-4.50
2023-03-29T00:53:13.320Z,-4.53
2023-03-29T00:55:48.038Z,-4.56
2023-03-29T00:58:21.350Z,-4.62
2023-03-29T01:00:57.962Z,-4.64
2023-03-29T01:03:30.376Z,-4.64
2023-03-29T01:06:04.583Z,-4.59
2023-03-29T01:08:38.032Z,-4.61
2023-03-29T01:11:17.863Z,-4.64
2023-03-29T01:14:15.368Z,-4.66
2023-03-29T01:16:43.639Z,-4.65
2023-03-29T01:19:15.775Z,-4.67
2023-03-29T01:21:51.675Z,-4.70
2023-03-29T01:24:38.245Z,-4.73
2023-03-29T01:27:37.996Z,-4.79
2023-03-29T01:30:13.298Z,-4.90
2023-03-29T01:32:51.272Z,-4.98
2023-03-29T01:35:32.736Z,-5.05
2023-03-29T01:38:13.458Z,-5.05
2023-03-29T01:40:42.197Z,-5.04
2023-03-29T01:43:34.343Z,-5.00
2023-03-29T01:46:11.621Z,-5.01
2023-03-29T01:48:49.974Z,-4.99
2023-03-29T01:51:26.535Z,-5.11
2023-03-29T01:54:01.474Z,-5.03
2023-03-29T01:56:36.968Z,-5.05
2023-03-29T01:59:11.242Z,-5.06
2023-03-29T02:01:49.418Z,-5.09
2023-03-29T02:04:29.146Z,-5.10
2023-03-29T02:07:00.893Z,-5.08
2023-03-29T02:09:30.435Z,-5.08
2023-03-29T02:12:00.979Z,-5.03
2023-03-29T02:14:30.560Z,-5.04
2023-03-29T02:17:32.404Z,-5.01
2023-03-29T02:20:23.470Z,-4.94
2023-03-29T02:23:18.224Z,-4.96
2023-03-29T02:25:47.882Z,-4.98
2023-03-29T02:28:17.306Z,-4.99
2023-03-29T02:31:15.084Z,-4.98
2023-03-29T02:33:57.283Z,-4.96
2023-03-29T02:36:40.867Z,-4.98
2023-03-29T02:39:13.839Z,-4.97
2023-03-29T02:41:45.944Z,-4.93
2023-03-29T02:44:21.696Z,-4.89
2023-03-29T02:46:53.160Z,-4.98
2023-03-29T02:49:21.681Z,-4.94
2023-03-29T02:51:53.738Z,-4.92
2023-03-29T02:54:26.007Z,-4.79
2023-03-29T02:57:00.401Z,-4.64
2023-03-29T02:59:30.131Z,-4.62
2023-03-29T03:01:58.483Z,-4.63
2023-03-29T03:04:28.161Z,-4.62
2023-03-29T03:06:56.323Z,-4.65
2023-03-29T03:09:24.302Z,-4.68
2023-03-29T03:11:53.857Z,-4.67
2023-03-29T03:14:23.079Z,-4.66
2023-03-29T03:16:52.923Z,-4.62
2023-03-29T03:19:21.596Z,-4.58
2023-03-29T03:21:51.166Z,-4.54
2023-03-29T03:24:19.197Z,-4.58
2023-03-29T03:26:47.222Z,-4.58
2023-03-29T03:29:16.405Z,-4.40
2023-03-29T03:32:04.418Z,-4.31
2023-03-29T03:35:12.453Z,-4.30
2023-03-29T03:37:41.579Z,-4.29
2023-03-29T03:40:11.799Z,-4.36
2023-03-29T03:42:41.326Z,-4.43
2023-03-29T03:45:10.719Z,-4.57
2023-03-29T03:47:47.350Z,-4.55
2023-03-29T03:50:24.490Z,-4.55
2023-03-29T03:52:52.872Z,-4.55
2023-03-29T03:55:22.150Z,-4.55
2023-03-29T03:58:17.900Z,-4.55
2023-03-29T04:00:48.986Z,-4.54
2023-03-29T04:03:26.526Z,-4.54
2023-03-29T04:05:54.644Z,-4.59
2023-03-29T04:08:25.026Z,-4.60
2023-03-29T04:11:32.090Z,-4.67
2023-03-29T04:14:00.626Z,-4.68
2023-03-29T04:16:44.978Z,-4.68
2023-03-29T04:19:36.147Z,-4.69
2023-03-29T04:22:04.016Z,-4.66
2023-03-29T04:24:32.043Z,-4.65
2023-03-29T04:27:18.536Z,-4.59
2023-03-29T04:29:46.966Z,-4.55
2023-03-29T04:32:27.697Z,-4.53
2023-03-29T04:35:09.355Z,-4.51
2023-03-29T04:37:40.506Z,-4.50
2023-03-29T04:40:14.076Z,-4.46
2023-03-29T04:43:00.165Z,-4.46
2023-03-29T04:45:29.803Z,-4.47
2023-03-29T04:48:08.466Z,-4.45
2023-03-29T04:50:37.634Z,-4.46
2023-03-29T04:53:06.043Z,-4.41
2023-03-29T04:55:33.977Z,-4.37
2023-03-29T04:58:04.991Z,-4.27
2023-03-29T05:00:38.040Z,-4.14
2023-03-29T05:03:24.069Z,-4.03
2023-03-29T05:06:07.409Z,-3.95
2023-03-29T05:08:40.072Z,-3.89
2023-03-29T05:11:21.953Z,-3.83
2023-03-29T05:13:49.935Z,-3.90
2023-03-29T05:16:18.799Z,-3.89
2023-03-29T05:18:46.649Z,-3.82
2023-03-29T05:21:15.687Z,-3.59
2023-03-29T05:23:45.002Z,-3.44
2023-03-29T05:26:31.685Z,-3.27
2023-03-29T05:28:59.503Z,-3.11
2023-03-29T05:31:28.311Z,-2.95
2023-03-29T05:33:56.627Z,-2.73
2023-03-29T05:36:24.873Z,-2.59
2023-03-29T05:38:52.965Z,-2.43
2023-03-29T05:41:22.821Z,-2.27
2023-03-29T05:43:50.674Z,-2.11
2023-03-29T05:46:19.579Z,-1.91
2023-03-29T05:48:51.666Z,-1.77
2023-03-29T05:51:24.264Z,-1.60
2023-03-29T05:53:54.964Z,-1.42
2023-03-29T05:56:22.873Z,-1.26
2023-03-29T05:58:54.995Z,-1.03
2023-03-29T06:01:27.264Z,-0.79
2023-03-29T06:03:59.548Z,-0.54
2023-03-29T06:06:37.765Z,-0.29
2023-03-29T06:09:05.702Z,-0.13
2023-03-29T06:11:40.842Z,-0.03
2023-03-29T06:14:08.770Z,0.02
2023-03-29T06:16:42.859Z,0.09
2023-03-29T06:19:11.364Z,0.18
2023-03-29T06:21:39.494Z,0.30
2023-03-29T06:24:07.851Z,0.37
2023-03-29T06:26:40.490Z,0.44
2023-03-29T06:29:09.356Z,0.48
2023-03-29T06:31:40.907Z,0.56
2023-03-29T06:34:10.001Z,0.64
2023-03-29T06:37:04.207Z,0.79
2023-03-29T06:39:33.203Z,0.91
2023-03-29T06:42:22.723Z,1.03
2023-03-29T06:45:11.078Z,1.17
2023-03-29T06:47:41.179Z,1.34
2023-03-29T06:50:10.305Z,1.42
2023-03-29T06:52:46.255Z,1.50
2023-03-29T06:55:15.966Z,1.57
2023-03-29T06:57:44.447Z,1.69
2023-03-29T07:00:19.378Z,1.75
2023-03-29T07:03:06.942Z,1.84
2023-03-29T07:05:42.122Z,1.91
2023-03-29T07:08:14.251Z,2.02
2023-03-29T07:11:04.117Z,2.12
2023-03-29T07:13:49.220Z,2.24
2023-03-29T07:16:19.882Z,2.38
2023-03-29T07:19:08.994Z,2.52
2023-03-29T07:21:53.431Z,2.68
2023-03-29T07:24:23.421Z,2.86
2023-03-29T07:27:03.169Z,3.04
2023-03-29T07:29:33.338Z,3.30
2023-03-29T07:32:01.312Z,3.56
2023-03-29T07:34:44.757Z,3.71
2023-03-29T07:37:27.051Z,3.86
2023-03-29T07:39:56.882Z,4.07
2023-03-29T07:42:40.694Z,4.22
2023-03-29T07:45:11.374Z,4.35
2023-03-29T07:47:49.195Z,4.50
2023-03-29T07:50:18.148Z,4.65
2023-03-29T07:52:46.278Z,4.79
2023-03-29T07:55:14.852Z,4.96
2023-03-29T07:57:57.711Z,5.16
2023-03-29T08:00:26.074Z,5.18
2023-03-29T08:03:09.356Z,5.40
2023-03-29T08:05:41.177Z,5.73
2023-03-29T08:08:14.945Z,5.94
2023-03-29T08:10:53.686Z,6.16
2023-03-29T08:13:47.735Z,6.39
2023-03-29T08:16:18.468Z,6.53
2023-03-29T08:18:52.720Z,6.73
2023-03-29T08:21:21.777Z,6.91
2023-03-29T08:23:51.267Z,7.11
2023-03-29T08:26:26.946Z,7.23
2023-03-29T08:28:55.518Z,7.43
2023-03-29T08:31:24.299Z,7.48
2023-03-29T08:33:53.312Z,7.55
2023-03-29T08:36:40.530Z,7.53
2023-03-29T08:39:22.492Z,7.62
2023-03-29T08:42:19.287Z,7.69
2023-03-29T08:45:06.219Z,7.86
2023-03-29T08:47:43.302Z,8.02
2023-03-29T08:50:14.730Z,8.21
2023-03-29T08:53:01.086Z,8.30
2023-03-29T08:56:04.754Z,8.43
2023-03-29T08:58:52.642Z,8.45
2023-03-29T09:01:23.044Z,8.54
2023-03-29T09:04:13.120Z,8.58
2023-03-29T09:06:49.714Z,8.62
2023-03-29T09:09:31.658Z,8.66
2023-03-29T09:12:16.301Z,8.72
2023-03-29T09:15:21.610Z,8.89
2023-03-29T09:17:59.849Z,9.15
2023-03-29T09:20:41.204Z,9.27
2023-03-29T09:23:48.413Z,9.29
2023-03-29T09:26:47.691Z,9.22
2023-03-29T09:29:48.854Z,9.32
2023-03-29T09:32:22.561Z,9.31
2023-03-29T09:35:27.674Z,9.29
2023-03-29T09:37:57.828Z,9.40
2023-03-29T09:40:42.817Z,9.47
2023-03-29T09:43:22.107Z,9.50
2023-03-29T09:45:58.985Z,9.59
2023-03-29T09:48:29.763Z,9.76
2023-03-29T09:50:58.164Z,9.94
2023-03-29T09:53:26.644Z,9.98
2023-03-29T09:56:10.863Z,9.98
2023-03-29T09:58:47.000Z,10.00
2023-03-29T10:01:17.691Z,10.15
2023-03-29T10:03:52.557Z,10.27
2023-03-29T10:06:25.489Z,10.46
2023-03-29T10:08:59.074Z,10.64
2023-03-29T10:11:33.399Z,10.86
2023-03-29T10:14:04.465Z,11.00
2023-03-29T10:16:46.530Z,10.97
2023-03-29T10:19:34.540Z,11.09
2023-03-29T10:22:08.129Z,11.30
2023-03-29T10:24:36.217Z,11.48
2023-03-29T10:27:09.797Z,11.69
2023-03-29T10:29:42.386Z,11.69
2023-03-29T10:32:34.682Z,11.58
2023-03-29T10:35:21.462Z,11.56
2023-03-29T10:37:53.192Z,11.50
2023-03-29T10:40:27.726Z,11.47
2023-03-29T10:43:11.435Z,11.63
2023-03-29T10:45:40.025Z,11.77
2023-03-29T10:48:16.157Z,11.75
2023-03-29T10:50:49.898Z,11.60
2023-03-29T10:53:25.070Z,11.67
2023-03-29T10:56:28.087Z,11.79
2023-03-29T10:59:23.011Z,11.90
2023-03-29T11:02:17.075Z,11.85
2023-03-29T11:05:06.036Z,11.89
2023-03-29T11:08:05.098Z,11.84
2023-03-29T11:11:07.492Z,11.85
2023-03-29T11:14:09.382Z,11.98
2023-03-29T11:16:51.120Z,11.85
2023-03-29T11:19:43.480Z,11.97
2023-03-29T11:22:36.688Z,11.91
2023-03-29T11:25:17.424Z,11.94
2023-03-29T11:28:00.893Z,12.06
2023-03-29T11:30:48.283Z,12.28
2023-03-29T11:33:28.053Z,12.46
2023-03-29T11:36:34.547Z,12.47
2023-03-29T11:39:35.778Z,12.48
2023-03-29T11:42:17.859Z,12.47
2023-03-29T11:44:48.620Z,12.45
2023-03-29T11:47:23.168Z,12.42
2023-03-29T11:49:57.911Z,12.20
2023-03-29T11:52:40.860Z,12.22
2023-03-29T11:55:15.422Z,12.18
2023-03-29T11:57:46.406Z,12.13
2023-03-29T12:00:46.758Z,12.03
2023-03-29T12:03:47.457Z,11.86
2023-03-29T12:07:00.094Z,12.04
2023-03-29T12:09:44.833Z,12.30
2023-03-29T12:12:17.884Z,12.50
2023-03-29T12:15:07.172Z,12.60
2023-03-29T12:17:42.610Z,12.68
2023-03-29T12:20:23.440Z,12.69
2023-03-29T12:22:51.883Z,12.67
2023-03-29T12:26:06.314Z,12.62
2023-03-29T12:29:28.676Z,12.46
2023-03-29T12:32:34.079Z,12.39
2023-03-29T12:35:49.617Z,12.56
2023-03-29T12:38:37.838Z,12.83
2023-03-29T12:41:24.971Z,12.96
2023-03-29T12:44:17.960Z,13.15
2023-03-29T12:46:59.844Z,13.00
2023-03-29T12:49:35.224Z,12.92
2023-03-29T12:52:16.695Z,12.74
2023-03-29T12:54:56.818Z,12.63
2023-03-29T12:57:43.227Z,12.59
2023-03-29T13:00:26.590Z,12.55
2023-03-29T13:03:20.360Z,12.68
2023-03-29T13:05:59.914Z,12.41
2023-03-29T13:08:41.086Z,12.28
2023-03-29T13:11:25.495Z,12.25
2023-03-29T13:13:53.683Z,12.35
2023-03-29T13:16:33.778Z,12.35
2023-03-29T13:19:34.593Z,12.39
2023-03-29T13:22:35.820Z,12.59
2023-03-29T13:25:10.247Z,12.79
2023-03-29T13:28:02.280Z,12.83
2023-03-29T13:30:45.291Z,12.83
2023-03-29T13:33:32.806Z,13.04
2023-03-29T13:36:33.102Z,13.24
2023-03-29T13:39:05.424Z,13.40
2023-03-29T13:41:39.317Z,13.43
2023-03-29T13:44:45.000Z,13.49
2023-03-29T13:47:19.158Z,13.58
2023-03-29T13:49:53.600Z,13.58
2023-03-29T13:52:29.253Z,13.53
2023-03-29T13:55:02.069Z,13.44
2023-03-29T13:57:55.284Z,13.38
2023-03-29T14:00:31.633Z,13.36
2023-03-29T14:03:04.317Z,13.40
2023-03-29T14:05:36.149Z,13.40
2023-03-29T14:08:19.011Z,13.33
2023-03-29T14:10:48.209Z,13.24
2023-03-29T14:13:19.200Z,13.15
2023-03-29T14:15:54.828Z,13.13
2023-03-29T14:18:25.867Z,13.07
2023-03-29T14:20:55.679Z,13.03
2023-03-29T14:23:30.705Z,13.09
2023-03-29T14:26:22.612Z,13.12
2023-03-29T14:28:56.570Z,13.08
2023-03-29T14:31:32.028Z,13.02
2023-03-29T14:34:02.326Z,13.08
2023-03-29T14:36:32.510Z,13.03
2023-03-29T14:39:16.758Z,12.88
2023-03-29T14:41:57.184Z,12.84
2023-03-29T14:44:28.858Z,12.80
2023-03-29T14:46:57.087Z,12.70
2023-03-29T14:49:25.497Z,12.56
2023-03-29T14:51:55.301Z,12.50
2023-03-29T14:54:28.937Z,12.44
2023-03-29T14:56:56.943Z,12.34
2023-03-29T14:59:48.836Z,12.18
2023-03-29T15:02:27.656Z,12.08
2023-03-29T15:05:05.130Z,12.04
2023-03-29T15:07:35.217Z,11.98
2023-03-29T15:10:06.545Z,11.97
2023-03-29T15:12:43.372Z,12.00
2023-03-29T15:15:13.285Z,11.93
2023-03-29T15:17:51.818Z,11.84
2023-03-29T15:20:31.657Z,11.83
2023-03-29T15:23:04.640Z,11.83
2023-03-29T15:25:38.594Z,11.90
2023-03-29T15:28:06.429Z,11.96
2023-03-29T15:30:39.427Z,12.05
2023-03-29T15:33:23.163Z,12.17
2023-03-29T15:35:53.123Z,12.34
2023-03-29T15:38:25.453Z,12.76
2023-03-29T15:40:58.944Z,13.11
2023-03-29T15:43:27.441Z,13.18
2023-03-29T15:45:55.249Z,13.26
2023-03-29T15:48:26.987Z,13.07
2023-03-29T15:50:55.140Z,12.75
2023-03-29T15:53:23.882Z,12.52
2023-03-29T15:55:54.695Z,12.29
2023-03-29T15:58:29.061Z,12.00
2023-03-29T16:01:11.208Z,11.84
2023-03-29T16:03:40.099Z,11.79
2023-03-29T16:06:12.046Z,11.72
2023-03-29T16:08:41.556Z,11.60
2023-03-29T16:11:09.899Z,11.40
2023-03-29T16:13:37.803Z,11.21
2023-03-29T16:16:06.857Z,11.03
2023-03-29T16:18:35.860Z,10.87
2023-03-29T16:21:04.828Z,10.72
2023-03-29T16:23:32.848Z,10.66
2023-03-29T16:26:01.033Z,10.60
2023-03-29T16:28:29.009Z,10.56
2023-03-29T16:30:56.812Z,10.45
2023-03-29T16:33:24.709Z,10.38
2023-03-29T16:35:52.585Z,10.29
2023-03-29T16:38:21.799Z,10.20
2023-03-29T16:40:50.035Z,10.10
2023-03-29T16:43:18.834Z,10.02
2023-03-29T16:45:46.856Z,9.96
2023-03-29T16:48:17.452Z,9.92
2023-03-29T16:50:49.647Z,9.95
2023-03-29T16:53:21.818Z,9.86
2023-03-29T16:55:50.650Z,9.83
2023-03-29T16:58:18.882Z,9.79
2023-03-29T17:00:48.551Z,9.78
2023-03-29T17:03:17.114Z,9.64
2023-03-29T17:05:48.878Z,9.51
2023-03-29T17:08:18.135Z,9.45
2023-03-29T17:10:47.148Z,9.39
2023-03-29T17:13:15.040Z,9.32
2023-03-29T17:15:42.962Z,9.24
2023-03-29T17:18:11.109Z,9.12
2023-03-29T17:20:40.468Z,9.07
2023-03-29T17:23:09.067Z,9.06
2023-03-29T17:25:37.556Z,9.02
2023-03-29T17:28:05.748Z,8.97
2023-03-29T17:30:35.207Z,8.89
2023-03-29T17:33:04.068Z,8.74
2023-03-29T17:35:32.421Z,8.68
2023-03-29T17:38:01.531Z,8.59
2023-03-29T17:40:29.766Z,8.47
2023-03-29T17:42:57.588Z,8.43
2023-03-29T17:45:25.815Z,8.42
2023-03-29T17:47:53.932Z,8.36
2023-03-29T17:50:21.825Z,8.32
2023-03-29T17:52:49.736Z,8.21
2023-03-29T17:55:18.067Z,8.13
2023-03-29T17:57:45.834Z,7.99
2023-03-29T18:00:14.382Z,7.93
2023-03-29T18:02:43.182Z,7.79
2023-03-29T18:05:11.788Z,7.78
2023-03-29T18:07:39.608Z,7.70
2023-03-29T18:10:08.294Z,7.69
2023-03-29T18:12:36.785Z,7.63
2023-03-29T18:15:06.412Z,7.58
2023-03-29T18:17:35.882Z,7.62
2023-03-29T18:20:10.997Z,7.48
2023-03-29T18:22:43.601Z,7.37
2023-03-29T18:25:11.431Z,7.32
2023-03-29T18:27:39.817Z,7.29
2023-03-29T18:30:08.907Z,7.26
2023-03-29T18:32:37.148Z,7.22
2023-03-29T18:35:06.302Z,7.18
2023-03-29T18:37:34.150Z,7.18
2023-03-29T18:40:02.275Z,7.23
2023-03-29T18:42:30.832Z,7.30
2023-03-29T18:44:58.777Z,7.32
2023-03-29T18:47:27.352Z,7.30
2023-03-29T18:49:55.973Z,7.31
2023-03-29T18:52:23.896Z,7.31
2023-03-29T18:54:52.009Z,7.28
2023-03-29T18:57:19.859Z,7.31
2023-03-29T18:59:47.756Z,7.25
2023-03-29T19:02:15.998Z,7.27
2023-03-29T19:04:44.276Z,7.22
2023-03-29T19:07:12.613Z,7.28
2023-03-29T19:09:41.802Z,7.42
2023-03-29T19:12:09.857Z,7.41
2023-03-29T19:14:37.728Z,7.39
2023-03-29T19:17:06.033Z,7.39
2023-03-29T19:19:33.920Z,7.34
2023-03-29T19:22:01.836Z,7.33
2023-03-29T19:24:29.996Z,7.33
2023-03-29T19:26:58.380Z,7.37
2023-03-29T19:29:26.334Z,7.35
2023-03-29T19:31:54.793Z,7.36
2023-03-29T19:34:24.415Z,7.47
2023-03-29T19:36:53.997Z,7.38
2023-03-29T19:39:22.096Z,7.34
2023-03-29T19:41:49.995Z,7.37
2023-03-29T19:44:17.886Z,7.43
2023-03-29T19:46:45.777Z,7.44
2023-03-29T19:49:14.008Z,7.45
2023-03-29T19:51:43.120Z,7.42
2023-03-29T19:54:13.353Z,7.39
2023-03-29T19:56:42.792Z,7.32
2023-03-29T19:59:11.292Z,7.30
2023-03-29T20:01:42.763Z,7.28
2023-03-29T20:04:11.894Z,7.33
2023-03-29T20:06:40.007Z,7.30
2023-03-29T20:09:08.782Z,7.29
2023-03-29T20:11:37.842Z,7.31
2023-03-29T20:14:05.700Z,7.36
2023-03-29T20:16:34.958Z,7.39
2023-03-29T20:19:04.111Z,7.43
2023-03-29T20:21:37.437Z,7.38
2023-03-29T20:24:06.112Z,7.34
2023-03-29T20:26:34.011Z,7.34
2023-03-29T20:29:02.126Z,7.40
2023-03-29T20:31:30.075Z,7.41
2023-03-29T20:33:58.043Z,7.36
2023-03-29T20:36:26.731Z,7.33
2023-03-29T20:38:56.314Z,7.33
2023-03-29T20:41:24.604Z,7.39
2023-03-29T20:43:58.506Z,7.42
2023-03-29T20:46:34.947Z,7.31
2023-03-29T20:49:05.037Z,7.34
2023-03-29T20:51:32.918Z,7.33
2023-03-29T20:54:03.869Z,7.33
2023-03-29T20:56:34.371Z,7.46
2023-03-29T20:59:04.175Z,7.48
2023-03-29T21:01:35.068Z,7.48
2023-03-29T21:04:03.112Z,7.49
2023-03-29T21:06:31.685Z,7.48
2023-03-29T21:08:59.415Z,7.43
2023-03-29T21:11:27.680Z,7.39
2023-03-29T21:13:55.550Z,7.34
2023-03-29T21:16:25.327Z,7.34
2023-03-29T21:18:53.376Z,7.34
2023-03-29T21:21:22.780Z,7.29
2023-03-29T21:23:50.889Z,7.27
2023-03-29T21:26:18.727Z,7.26
2023-03-29T21:28:48.635Z,7.25
2023-03-29T21:31:16.635Z,7.28
2023-03-29T21:33:44.623Z,7.28
2023-03-29T21:36:12.522Z,7.27
2023-03-29T21:38:40.544Z,7.15
2023-03-29T21:41:12.300Z,7.22
2023-03-29T21:43:40.497Z,7.26
2023-03-29T21:46:09.407Z,7.29
2023-03-29T21:48:37.781Z,7.28
2023-03-29T21:51:06.496Z,7.26
2023-03-29T21:53:35.069Z,7.25
2023-03-29T21:56:03.280Z,7.21
2023-03-29T21:58:31.320Z,7.21
2023-03-29T22:00:59.762Z,7.23
2023-03-29T22:03:28.384Z,7.29
2023-03-29T22:05:58.623Z,7.28
2023-03-29T22:08:27.013Z,7.33
2023-03-29T22:10:57.058Z,7.35
2023-03-29T22:13:28.300Z,7.43
2023-03-29T22:16:01.393Z,7.45
2023-03-29T22:18:42.398Z,7.48
2023-03-29T22:21:20.424Z,7.48
2023-03-29T22:23:50.638Z,7.48
2023-03-29T22:26:20.101Z,7.51
2023-03-29T22:28:47.998Z,7.47
2023-03-29T22:31:18.956Z,7.45
2023-03-29T22:33:47.577Z,7.40
2023-03-29T22:36:26.753Z,7.40
2023-03-29T22:38:55.100Z,7.39
2023-03-29T22:41:24.892Z,7.43
2023-03-29T22:43:54.838Z,7.48
2023-03-29T22:46:23.597Z,7.43
2023-03-29T22:48:52.400Z,7.39
2023-03-29T22:51:20.907Z,7.42
2023-03-29T22:53:48.934Z,7.45
2023-03-29T22:56:17.893Z,7.46
2023-03-29T22:58:46.127Z,7.41
2023-03-29T23:01:14.050Z,7.38
2023-03-29T23:03:41.965Z,7.34
2023-03-29T23:06:09.909Z,7.37
2023-03-29T23:08:38.109Z,7.35
2023-03-29T23:11:07.563Z,7.37
2023-03-29T23:13:35.786Z,7.38
2023-03-29T23:16:04.990Z,7.37
2023-03-29T23:18:35.010Z,7.35
2023-03-29T23:21:06.140Z,7.34
2023-03-29T23:23:35.700Z,7.30
2023-03-29T23:26:04.445Z,7.29
2023-03-29T23:28:34.820Z,7.27
2023-03-29T23:31:09.780Z,7.22
2023-03-29T23:33:42.770Z,7.18
2023-03-29T23:36:14.206Z,7.19
2023-03-29T23:38:44.892Z,7.20
2023-03-29T23:41:13.392Z,7.19
2023-03-29T23:43:43.910Z,7.20
2023-03-29T23:46:17.412Z,7.22
2023-03-29T23:48:46.616Z,7.23
2023-03-29T23:51:18.230Z,7.23
2023-03-29T23:53:46.723Z,7.19
2023-03-29T23:56:14.794Z,7.15
2023-03-29T23:58:42.800Z,7.19
